Погода Ламбарина неделю

Минас-Жерайс, Бразилия

19 - 25 июня
  • 19июня
    Сегодня
    +8°
    +24°
    Ясно и безоблачно
    ВремяПогодаТемператураВлажностьДавлениеВетер, м/сВероятность осадков
    00:00Ясно и безоблачно+11°C83 %686 мм1.4 м/с5 %
    03:00Ясно и безоблачно+11°C80 %686 мм1.4 м/с5 %
    06:00Ясно и безоблачно+8°C81 %686 мм1.3 м/с5 %
    09:00Ясно и безоблачно+14°C66 %689 мм1.2 м/с5 %
    12:00Ясно и безоблачно+21°C46 %689 мм2.4 м/с5 %
    15:00Ясно и безоблачно+24°C48 %688 мм1.8 м/с5 %
    18:00Ясно и безоблачно+19°C54 %688 мм0.5 м/с5 %
    21:00Ясно и безоблачно+16°C72 %688 мм1.3 м/с5 %
  • 20июня
    Четверг
    +9°
    +25°
    Ясно и безоблачно
    ВремяПогодаТемператураВлажностьДавлениеВетер, м/сВероятность осадков
    00:00Ясно и безоблачно+12°C74 %687 мм1.5 м/с5 %
    03:00Ясно и безоблачно+12°C73 %687 мм1.4 м/с5 %
    06:00Ясно и безоблачно+9°C76 %686 мм1.4 м/с5 %
    09:00Ясно и безоблачно+15°C60 %689 мм0.7 м/с5 %
    12:00Ясно и безоблачно+22°C42 %690 мм1.1 м/с5 %
    15:00Ясно и безоблачно+25°C38 %689 мм0.9 м/с5 %
    18:00Ясно и безоблачно+18°C59 %688 мм1.6 м/с5 %
    21:00Ясно и безоблачно+16°C69 %688 мм1.2 м/с5 %
  • 21июня
    Пятница
    +10°
    +26°
    Небольшая облачность
    ВремяПогодаТемператураВлажностьДавлениеВетер, м/сВероятность осадков
    00:00Ясно и безоблачно+12°C71 %687 мм1.3 м/с5 %
    03:00Ясно и безоблачно+12°C69 %687 мм1.6 м/с5 %
    06:00Ясно и безоблачно+10°C72 %686 мм1.6 м/с5 %
    09:00Ясно и безоблачно+14°C64 %689 мм1.8 м/с5 %
    12:00Ясно и безоблачно+22°C52 %690 мм2.3 м/с5 %
    15:00Небольшая облачность+25°C48 %688 мм2.3 м/с5 %
    18:00Практически безоблачно+19°C66 %687 мм1.2 м/с5 %
    21:00Облачно с прояснениями+17°C69 %688 мм1.7 м/с5 %
  • 22июня
    Суббота
    +10°
    +25°
    Облачно с прояснениями
    ВремяПогодаТемператураВлажностьДавлениеВетер, м/сВероятность осадков
    00:00Практически безоблачно+14°C80 %688 мм1.7 м/с5 %
    03:00Небольшая облачность+13°C90 %687 мм1.5 м/с5 %
    06:00Практически безоблачно+10°C98 %686 мм1.6 м/с5 %
    09:00Ясно и безоблачно+15°C83 %689 мм1.7 м/с5 %
    12:00Небольшая облачность+22°C59 %689 мм2.5 м/с9 %
    15:00Облачно с прояснениями+25°C50 %688 мм2.4 м/с3 %
    18:00Облачно с прояснениями+19°C65 %687 мм1.1 м/с5 %
    21:00Облачно с прояснениями+17°C71 %687 мм0.6 м/с5 %
  • 23июня
    Воскресенье
    +10°
    +26°
    Ясно и безоблачно
    ВремяПогодаТемператураВлажностьДавлениеВетер, м/сВероятность осадков
    00:00Облачно с прояснениями+13°C79 %686 мм1.0 м/с5 %
    03:00Ясно и безоблачно+12°C82 %686 мм1.3 м/с5 %
    06:00Ясно и безоблачно+11°C84 %686 мм1.2 м/с5 %
    09:00Ясно и безоблачно+15°C67 %688 мм1.1 м/с5 %
    12:00Ясно и безоблачно+22°C52 %688 мм2.4 м/с5 %
    15:00Ясно и безоблачно+26°C47 %687 мм2.7 м/с4 %
    18:00Ясно и безоблачно+21°C55 %687 мм0.6 м/с5 %
    21:00Ясно и безоблачно+19°C61 %687 мм0.8 м/с5 %
Мы используем cookies
Соглашаюсь